Time;durP1;ratioP1;P1;durP2;ratioP2;P2;SDS_P1;SDS_P2;PMS_P1;PMS_P2;Temp;Humidity;BMP_temperature;BMP_pressure;BME280_temperature;BME280_humidity;BME280_pressure;Samples;Min_cycle;Max_cycle;Signal;HPM_P1;HPM_P2
2021/01/16 00:00:33;;;;;;;8.45;6.65;;;-1.60;99.90;;;;;;4995954;28;20089;-89
2021/01/16 00:03:00;;;;;;;9.13;7.18;;;-1.70;99.90;;;;;;4996269;28;20053;-89
2021/01/16 00:05:28;;;;;;;8.43;6.68;;;-1.60;99.90;;;;;;4996291;28;20136;-89
2021/01/16 00:08:04;;;;;;;10.57;7.13;;;-1.60;99.90;;;;;;5013544;28;20089;-90
2021/01/16 00:10:32;;;;;;;9.85;6.75;;;-1.50;99.90;;;;;;4996111;28;20129;-89
2021/01/16 00:12:59;;;;;;;10.90;7.60;;;-1.50;99.90;;;;;;4995986;28;20564;-89
2021/01/16 00:15:26;;;;;;;13.32;6.15;;;-1.50;99.90;;;;;;4996217;28;20129;-89
2021/01/16 00:18:05;;;;;;;8.02;6.05;;;-1.50;99.90;;;;;;4996199;28;20152;-90
2021/01/16 00:20:33;;;;;;;9.35;7.22;;;-1.50;99.90;;;;;;4999936;28;20056;-89
2021/01/16 00:22:59;;;;;;;12.00;7.82;;;-1.50;99.90;;;;;;4999453;28;20413;-89
2021/01/16 00:25:26;;;;;;;9.63;6.72;;;-1.50;99.90;;;;;;4999906;28;20153;-90
2021/01/16 00:27:52;;;;;;;9.82;7.35;;;-1.40;99.90;;;;;;4999902;28;20140;-89
2021/01/16 00:30:22;;;;;;;9.02;6.50;;;-1.40;99.90;;;;;;4999922;28;20054;-90
2021/01/16 00:32:49;;;;;;;11.63;7.28;;;-1.40;99.90;;;;;;5016904;28;20141;-89
2021/01/16 00:35:17;;;;;;;10.60;7.35;;;-1.40;99.90;;;;;;4999660;28;20042;-89
2021/01/16 00:37:46;;;;;;;9.73;7.18;;;-1.50;99.90;;;;;;4999472;28;20108;-90
2021/01/16 00:40:18;;;;;;;7.97;6.10;;;-1.50;99.90;;;;;;5016563;28;20165;-89
2021/01/16 00:42:50;;;;;;;9.37;6.97;;;-1.50;99.90;;;;;;5016749;28;20053;-89
2021/01/16 00:45:18;;;;;;;11.20;7.63;;;-1.50;99.90;;;;;;4999967;28;20336;-89
2021/01/16 00:47:45;;;;;;;10.02;7.72;;;-1.50;99.90;;;;;;5016845;28;20516;-90
2021/01/16 00:50:15;;;;;;;12.73;8.30;;;-1.50;99.90;;;;;;5016724;28;20054;-89
2021/01/16 00:52:41;;;;;;;9.35;7.10;;;-1.50;99.90;;;;;;5016261;28;20132;-89
2021/01/16 00:55:09;;;;;;;10.52;7.47;;;-1.50;99.90;;;;;;4999556;28;20129;-89
2021/01/16 00:57:36;;;;;;;9.68;7.13;;;-1.40;99.90;;;;;;5016281;28;20111;-89
2021/01/16 01:00:06;;;;;;;12.43;7.15;;;-1.50;99.90;;;;;;4999426;28;20050;-90
2021/01/16 01:02:34;;;;;;;9.15;7.00;;;-1.50;99.90;;;;;;5017003;28;20054;-89
2021/01/16 01:05:01;;;;;;;10.43;7.45;;;-1.50;99.90;;;;;;4999538;28;20476;-89
2021/01/16 01:07:27;;;;;;;12.35;7.60;;;-1.60;99.90;;;;;;4999325;28;20056;-89
2021/01/16 01:09:53;;;;;;;8.93;7.07;;;-1.60;99.90;;;;;;4999172;28;20056;-89
2021/01/16 01:12:19;;;;;;;10.65;7.55;;;-1.70;99.90;;;;;;5016706;28;20453;-89
2021/01/16 01:14:45;;;;;;;11.57;7.00;;;-1.60;99.90;;;;;;4999049;28;20141;-89
2021/01/16 01:17:16;;;;;;;9.00;6.70;;;-1.70;99.90;;;;;;4999272;28;20455;-89
2021/01/16 01:19:43;;;;;;;10.20;7.07;;;-1.80;99.90;;;;;;4999060;28;20072;-89
2021/01/16 01:22:10;;;;;;;10.45;7.30;;;-1.80;99.90;;;;;;5016041;28;20086;-89
2021/01/16 01:24:37;;;;;;;10.43;6.38;;;-2.00;99.90;;;;;;4998523;28;20092;-89
2021/01/16 01:27:06;;;;;;;10.20;6.75;;;-2.00;99.90;;;;;;4998977;28;20057;-89
2021/01/16 01:29:32;;;;;;;8.77;6.13;;;-2.00;99.90;;;;;;4998134;28;20133;-89
2021/01/16 01:31:59;;;;;;;10.25;6.68;;;-1.90;99.90;;;;;;4998438;28;20129;-89
2021/01/16 01:34:26;;;;;;;6.57;5.70;;;-1.90;99.90;;;;;;4998736;28;20490;-89
2021/01/16 01:36:52;;;;;;;8.05;6.20;;;-2.00;99.90;;;;;;4998479;28;20133;-89
2021/01/16 01:39:18;;;;;;;10.35;5.93;;;-2.10;99.90;;;;;;4998296;28;20046;-89
2021/01/16 01:41:45;;;;;;;7.75;6.10;;;-2.00;99.90;;;;;;5015696;28;20141;-89
2021/01/16 01:44:11;;;;;;;7.40;5.65;;;-2.10;99.90;;;;;;5015598;28;20553;-89
2021/01/16 01:46:38;;;;;;;9.30;5.75;;;-2.10;99.90;;;;;;4998040;28;20132;-89
2021/01/16 01:49:05;;;;;;;6.38;4.93;;;-2.20;99.90;;;;;;4998526;28;20137;-89
2021/01/16 01:51:33;;;;;;;7.55;5.45;;;-2.00;99.90;;;;;;4998164;28;20104;-89
2021/01/16 01:54:00;;;;;;;7.38;5.68;;;-2.00;99.90;;;;;;4998446;28;20129;-89
2021/01/16 01:56:27;;;;;;;7.63;5.70;;;-2.00;99.90;;;;;;4998399;28;20058;-89
2021/01/16 01:58:54;;;;;;;5.78;4.85;;;-2.20;99.90;;;;;;4997981;28;20132;-89
2021/01/16 02:01:21;;;;;;;7.05;5.47;;;-2.00;99.90;;;;;;5015267;28;20065;-88
2021/01/16 02:03:49;;;;;;;7.30;5.00;;;-2.00;99.90;;;;;;4998056;28;20128;-89
2021/01/16 02:06:16;;;;;;;6.47;4.95;;;-2.00;99.90;;;;;;5015227;28;20159;-89
2021/01/16 02:08:44;;;;;;;5.68;4.60;;;-1.90;99.90;;;;;;4997826;28;20133;-89
2021/01/16 02:11:11;;;;;;;6.35;5.20;;;-2.00;99.90;;;;;;4998038;28;20042;-89
2021/01/16 02:13:38;;;;;;;6.85;4.75;;;-1.90;99.90;;;;;;4997858;28;20137;-89
2021/01/16 02:16:23;;;;;;;8.15;5.93;;;-1.90;99.90;;;;;;4997877;28;20042;-89
2021/01/16 02:18:52;;;;;;;7.90;5.55;;;-2.00;99.90;;;;;;5014992;28;20053;-89
2021/01/16 02:21:19;;;;;;;8.38;6.00;;;-2.00;99.90;;;;;;4997426;28;20141;-89
2021/01/16 02:24:08;;;;;;;9.32;6.82;;;-2.20;99.90;;;;;;4997662;28;20153;-89
2021/01/16 02:26:47;;;;;;;11.43;6.40;;;-2.30;99.90;;;;;;4997513;28;20505;-89
2021/01/16 02:29:15;;;;;;;8.07;6.40;;;-2.40;99.90;;;;;;4997723;28;20056;-88
2021/01/16 02:31:49;;;;;;;8.88;6.68;;;-2.30;99.90;;;;;;5014798;28;20141;-89
2021/01/16 02:34:18;;;;;;;10.70;7.53;;;-2.30;99.90;;;;;;5014723;28;20046;-89
2021/01/16 02:37:19;;;;;;;9.90;7.20;;;-2.30;99.90;;;;;;5014472;28;20557;-88
2021/01/16 02:40:18;;;;;;;11.35;7.10;;;-2.60;99.90;;;;;;5014853;28;20497;-88
2021/01/16 02:42:52;;;;;;;10.65;7.40;;;-2.50;99.90;;;;;;4996879;28;20053;-89
2021/01/16 02:45:28;;;;;;;11.80;6.97;;;-2.50;99.90;;;;;;4997579;28;20092;-89
2021/01/16 02:48:07;;;;;;;11.73;7.18;;;-2.40;99.90;;;;;;4997460;28;20056;-89
2021/01/16 02:50:44;;;;;;;12.70;7.53;;;-2.50;99.90;;;;;;4997370;28;20140;-87
2021/01/16 02:53:12;;;;;;;9.35;7.15;;;-2.40;99.90;;;;;;4997481;28;20132;-89
2021/01/16 02:55:40;;;;;;;11.88;7.55;;;-2.40;99.90;;;;;;4997179;28;20050;-89
2021/01/16 02:58:06;;;;;;;11.82;8.27;;;-2.40;99.90;;;;;;4997433;28;20108;-88
2021/01/16 03:00:33;;;;;;;11.52;8.00;;;-2.50;99.90;;;;;;4997009;28;20085;-88
2021/01/16 03:02:59;;;;;;;11.02;8.05;;;-2.60;99.90;;;;;;5014003;28;20470;-89
2021/01/16 03:05:26;;;;;;;11.18;7.78;;;-2.60;99.90;;;;;;4996699;28;20152;-89
2021/01/16 03:07:54;;;;;;;10.43;7.85;;;-2.60;99.90;;;;;;4996562;28;20490;-88
2021/01/16 03:10:25;;;;;;;10.60;7.32;;;-2.60;99.90;;;;;;5013862;28;20050;-89
2021/01/16 03:12:52;;;;;;;10.95;7.55;;;-2.60;99.90;;;;;;4996583;28;20165;-88
2021/01/16 03:15:20;;;;;;;11.82;7.95;;;-2.60;99.90;;;;;;4996746;28;20088;-88
2021/01/16 03:17:52;;;;;;;11.57;7.72;;;-2.80;99.90;;;;;;4996615;28;20053;-88
2021/01/16 03:20:18;;;;;;;13.18;8.82;;;-2.70;99.90;;;;;;4996761;28;20056;-88
2021/01/16 03:22:45;;;;;;;13.63;8.40;;;-2.70;99.90;;;;;;4996169;28;20445;-89
2021/01/16 03:25:11;;;;;;;13.23;9.35;;;-2.70;99.90;;;;;;4996710;28;20139;-88
2021/01/16 03:27:38;;;;;;;11.65;8.45;;;-2.60;99.90;;;;;;4996267;28;20046;-88
2021/01/16 03:30:05;;;;;;;13.27;8.57;;;-2.60;99.90;;;;;;4996519;28;20073;-88
2021/01/16 03:32:31;;;;;;;12.40;7.75;;;-2.50;99.90;;;;;;5013301;28;20081;-88
2021/01/16 03:34:57;;;;;;;12.68;8.68;;;-2.50;99.90;;;;;;5013465;28;20053;-88
2021/01/16 03:37:24;;;;;;;12.15;8.70;;;-2.60;99.90;;;;;;5013306;28;20107;-88
2021/01/16 03:39:50;;;;;;;14.98;9.43;;;-2.60;99.90;;;;;;4996274;28;20470;-88
2021/01/16 03:42:16;;;;;;;14.93;8.73;;;-2.50;99.90;;;;;;5013913;28;20155;-87
2021/01/16 03:44:43;;;;;;;13.27;8.90;;;-2.60;99.90;;;;;;4996309;28;20132;-88
2021/01/16 03:47:09;;;;;;;14.73;9.65;;;-2.70;99.90;;;;;;4996428;28;20133;-88
2021/01/16 03:49:36;;;;;;;17.75;9.05;;;-2.70;99.90;;;;;;5013527;28;20050;-88
2021/01/16 03:52:04;;;;;;;12.75;8.60;;;-2.60;99.90;;;;;;4996616;28;20056;-88
2021/01/16 03:54:31;;;;;;;13.13;8.65;;;-2.60;99.90;;;;;;5016317;28;20116;-88
2021/01/16 03:56:58;;;;;;;13.77;9.00;;;-2.60;99.90;;;;;;5000243;28;20100;-88
2021/01/16 03:59:24;;;;;;;13.65;8.80;;;-2.80;99.90;;;;;;5017687;28;20478;-89
2021/01/16 04:01:51;;;;;;;14.07;9.80;;;-2.80;99.90;;;;;;5017468;28;20137;-88
2021/01/16 04:04:17;;;;;;;13.70;8.80;;;-2.70;99.90;;;;;;5017563;28;20050;-88
2021/01/16 04:06:43;;;;;;;15.82;9.32;;;-2.60;99.90;;;;;;5017321;28;20060;-88
2021/01/16 04:09:10;;;;;;;13.15;8.93;;;-2.60;99.90;;;;;;5000191;28;20233;-88
2021/01/16 04:11:36;;;;;;;14.35;9.07;;;-2.60;99.90;;;;;;5000015;28;20057;-88
2021/01/16 04:14:03;;;;;;;13.90;9.38;;;-2.60;99.90;;;;;;5000320;28;20046;-88
2021/01/16 04:16:29;;;;;;;17.20;9.75;;;-2.60;99.90;;;;;;4999853;28;20085;-88
2021/01/16 04:18:55;;;;;;;15.23;10.00;;;-2.60;99.90;;;;;;5000020;28;20482;-88
2021/01/16 04:21:22;;;;;;;19.70;10.57;;;-2.60;99.90;;;;;;5017099;28;20057;-88
2021/01/16 04:23:48;;;;;;;13.00;9.40;;;-2.70;99.90;;;;;;5017350;28;20137;-88
2021/01/16 04:26:14;;;;;;;14.82;9.88;;;-2.70;99.90;;;;;;5000376;28;20054;-89
2021/01/16 04:28:41;;;;;;;15.63;8.75;;;-2.60;99.90;;;;;;4999775;28;20061;-88
2021/01/16 04:31:07;;;;;;;12.82;9.32;;;-2.60;99.90;;;;;;5000007;28;20082;-88
2021/01/16 04:33:33;;;;;;;17.23;10.00;;;-2.50;99.90;;;;;;4999879;28;20046;-88
2021/01/16 04:36:00;;;;;;;16.42;10.63;;;-2.60;99.90;;;;;;5000209;28;20049;-88
2021/01/16 04:38:26;;;;;;;16.05;10.00;;;-2.60;99.90;;;;;;5016937;28;20073;-88
2021/01/16 04:40:53;;;;;;;16.08;9.98;;;-2.70;99.90;;;;;;5017011;28;20119;-87
2021/01/16 04:43:20;;;;;;;14.45;9.02;;;-2.70;99.90;;;;;;5016716;28;20108;-88
2021/01/16 04:45:49;;;;;;;15.63;10.50;;;-2.60;99.90;;;;;;5016841;28;20129;-88
2021/01/16 04:48:18;;;;;;;17.48;10.60;;;-2.60;99.90;;;;;;4999478;28;20086;-88
2021/01/16 04:50:48;;;;;;;16.98;10.77;;;-2.60;99.90;;;;;;4998970;28;20136;-88
2021/01/16 04:53:17;;;;;;;14.32;10.27;;;-2.60;99.90;;;;;;5016852;28;20101;-88
2021/01/16 04:55:44;;;;;;;17.67;12.18;;;-2.50;99.90;;;;;;5016870;28;20100;-88
2021/01/16 04:58:11;;;;;;;16.58;10.30;;;-2.50;99.90;;;;;;4999539;28;20049;-88
2021/01/16 05:00:39;;;;;;;16.17;10.95;;;-2.40;99.90;;;;;;4999054;28;20092;-88
2021/01/16 05:03:10;;;;;;;16.38;10.13;;;-2.40;99.90;;;;;;4999273;28;20136;-88
2021/01/16 05:05:41;;;;;;;16.73;10.02;;;-2.40;99.90;;;;;;5016175;28;20506;-88
2021/01/16 05:08:09;;;;;;;17.50;11.70;;;-2.40;99.90;;;;;;4999168;28;20100;-88
2021/01/16 05:10:40;;;;;;;16.40;10.45;;;-2.40;99.90;;;;;;4998867;28;20041;-88
2021/01/16 05:13:17;;;;;;;17.65;11.15;;;-2.30;99.90;;;;;;5016217;28;20509;-88
2021/01/16 05:15:45;;;;;;;15.25;9.93;;;-2.40;99.90;;;;;;5016178;28;20125;-87
2021/01/16 05:18:17;;;;;;;17.60;11.20;;;-2.40;99.90;;;;;;4998887;28;20491;-88
2021/01/16 05:20:46;;;;;;;17.80;11.05;;;-2.50;99.90;;;;;;4998627;28;20054;-88
2021/01/16 05:23:14;;;;;;;19.35;12.25;;;-2.50;99.90;;;;;;4998443;28;20096;-87
2021/01/16 05:25:49;;;;;;;18.10;11.52;;;-2.40;99.90;;;;;;4998838;28;20088;-88
2021/01/16 05:28:17;;;;;;;17.58;11.75;;;-2.50;99.90;;;;;;5015834;28;20498;-88
2021/01/16 05:30:46;;;;;;;15.48;10.40;;;-2.40;99.90;;;;;;5016049;28;20061;-88
2021/01/16 05:33:12;;;;;;;16.83;11.00;;;-2.40;99.90;;;;;;4998726;28;20379;-88
2021/01/16 05:35:39;;;;;;;13.07;9.40;;;-2.40;99.90;;;;;;4998485;28;20453;-87
2021/01/16 05:38:07;;;;;;;11.65;8.02;;;-2.60;99.90;;;;;;4998440;28;20081;-88
2021/01/16 05:40:35;;;;;;;11.05;8.23;;;-2.90;99.90;;;;;;4998334;28;20497;-87
2021/01/16 05:43:02;;;;;;;11.77;8.10;;;-3.10;99.90;;;;;;4998561;28;20049;-87
2021/01/16 05:45:32;;;;;;;12.70;7.60;;;-3.30;99.90;;;;;;4998456;28;20058;-87
2021/01/16 05:48:00;;;;;;;8.98;7.00;;;-3.40;99.90;;;;;;5015774;28;20421;-87
2021/01/16 05:50:26;;;;;;;8.88;6.53;;;-3.50;99.90;;;;;;5015515;28;20144;-88
2021/01/16 05:52:52;;;;;;;9.13;6.95;;;-3.60;99.90;;;;;;5015357;28;20085;-88
2021/01/16 05:55:19;;;;;;;7.95;5.75;;;-3.70;99.90;;;;;;5015577;28;20150;-87
2021/01/16 05:57:47;;;;;;;9.15;6.72;;;-3.70;99.90;;;;;;4998298;28;20053;-88
2021/01/16 06:00:24;;;;;;;9.43;5.68;;;-3.70;99.90;;;;;;4998362;28;20459;-87
2021/01/16 06:02:52;;;;;;;10.02;6.32;;;-3.70;99.90;;;;;;4998114;28;20108;-88
2021/01/16 06:05:25;;;;;;;9.57;7.00;;;-3.70;99.90;;;;;;4998485;28;20046;-88
2021/01/16 06:07:52;;;;;;;8.50;6.50;;;-3.80;99.90;;;;;;4998082;28;20133;-88
2021/01/16 06:10:20;;;;;;;9.27;6.50;;;-3.70;99.90;;;;;;4998145;28;20137;-88
2021/01/16 06:12:48;;;;;;;10.85;6.38;;;-3.70;99.90;;;;;;5015129;28;20042;-88
2021/01/16 06:15:20;;;;;;;11.00;7.85;;;-3.70;99.90;;;;;;4997739;28;20589;-88
2021/01/16 06:17:48;;;;;;;11.45;7.78;;;-3.80;99.90;;;;;;5014750;28;20060;-88
2021/01/16 06:20:21;;;;;;;11.10;7.50;;;-3.80;99.90;;;;;;4997696;28;20188;-87
2021/01/16 06:22:50;;;;;;;9.80;7.60;;;-3.80;99.90;;;;;;4997331;28;20062;-87
2021/01/16 06:25:22;;;;;;;12.38;7.47;;;-3.70;99.90;;;;;;4997568;28;20089;-88
2021/01/16 06:27:50;;;;;;;11.98;7.97;;;-3.70;99.90;;;;;;4997682;28;20137;-87
2021/01/16 06:30:21;;;;;;;11.07;8.27;;;-3.80;99.90;;;;;;5015042;28;20124;-88
2021/01/16 06:32:53;;;;;;;12.55;8.30;;;-3.90;99.90;;;;;;4997324;28;20054;-88
2021/01/16 06:35:21;;;;;;;11.20;7.82;;;-3.70;99.90;;;;;;4997577;28;20046;-88
2021/01/16 06:37:49;;;;;;;10.73;8.05;;;-3.70;99.90;;;;;;5014371;28;20482;-88
2021/01/16 06:40:33;;;;;;;11.27;8.07;;;-3.80;99.90;;;;;;4996830;28;20141;-88
2021/01/16 06:43:01;;;;;;;11.15;8.10;;;-3.80;99.90;;;;;;5014242;28;20057;-88
2021/01/16 06:45:29;;;;;;;12.90;8.30;;;-3.70;99.90;;;;;;4997268;28;20060;-88
2021/01/16 06:48:00;;;;;;;11.15;7.95;;;-3.80;99.90;;;;;;4997063;28;20101;-88
2021/01/16 06:50:28;;;;;;;12.90;8.32;;;-3.70;99.90;;;;;;4996812;28;20085;-88
2021/01/16 06:52:54;;;;;;;12.50;7.53;;;-3.60;99.90;;;;;;4996938;28;20140;-88
2021/01/16 06:55:21;;;;;;;11.75;7.63;;;-3.60;99.90;;;;;;4996958;28;20058;-88
2021/01/16 06:57:48;;;;;;;11.57;7.78;;;-3.60;99.90;;;;;;4996888;28;20041;-87
2021/01/16 07:00:15;;;;;;;12.80;8.68;;;-3.60;99.90;;;;;;4996714;28;20554;-88
2021/01/16 07:02:46;;;;;;;10.20;8.10;;;-3.60;99.90;;;;;;4996318;28;20414;-87
2021/01/16 07:05:16;;;;;;;13.95;8.85;;;-3.60;99.90;;;;;;4996950;28;20057;-87
2021/01/16 07:07:48;;;;;;;12.30;7.88;;;-3.60;99.90;;;;;;4996512;28;20049;-87
2021/01/16 07:10:20;;;;;;;13.57;8.50;;;-3.60;99.90;;;;;;4997425;28;20045;-88
2021/01/16 07:12:49;;;;;;;11.07;8.25;;;-3.50;99.90;;;;;;4996399;28;20089;-88
2021/01/16 07:15:17;;;;;;;10.93;8.32;;;-3.50;99.90;;;;;;4996421;28;20557;-88
2021/01/16 07:17:44;;;;;;;11.13;8.23;;;-3.50;99.90;;;;;;4996589;28;20080;-88
2021/01/16 07:20:11;;;;;;;12.65;9.05;;;-3.50;99.90;;;;;;4996471;28;20056;-88
2021/01/16 07:22:41;;;;;;;13.77;9.18;;;-3.50;99.90;;;;;;5013285;28;20455;-88
2021/01/16 07:25:10;;;;;;;12.30;8.98;;;-3.50;99.90;;;;;;4996497;28;20137;-88
2021/01/16 07:27:38;;;;;;;12.63;8.80;;;-3.60;99.90;;;;;;4995860;28;20101;-88
2021/01/16 07:30:06;;;;;;;14.73;9.35;;;-3.80;99.90;;;;;;5013536;28;20545;-87
2021/01/16 07:32:35;;;;;;;13.77;9.75;;;-3.70;99.90;;;;;;5013626;28;20054;-88
2021/01/16 07:35:03;;;;;;;15.63;9.35;;;-3.60;99.90;;;;;;4996530;28;20111;-87
2021/01/16 07:37:30;;;;;;;16.88;10.15;;;-3.70;99.90;;;;;;5013466;28;20141;-87
2021/01/16 07:40:15;;;;;;;21.90;13.82;;;-3.60;99.90;;;;;;5013932;28;20425;-88
2021/01/16 07:43:08;;;;;;;18.30;12.73;;;-3.60;99.90;;;;;;5013332;28;20387;-87
2021/01/16 07:45:38;;;;;;;16.08;11.15;;;-3.50;99.90;;;;;;4995800;28;20082;-88
2021/01/16 07:48:06;;;;;;;18.05;11.43;;;-3.40;99.90;;;;;;5013412;28;20073;-88
2021/01/16 07:50:35;;;;;;;16.65;10.85;;;-3.40;99.90;;;;;;4996063;28;20065;-87
2021/01/16 07:53:07;;;;;;;15.23;10.05;;;-3.30;99.90;;;;;;4996145;28;20054;-87
2021/01/16 07:55:36;;;;;;;13.48;10.02;;;-3.20;99.90;;;;;;4995996;28;20049;-87
2021/01/16 07:58:32;;;;;;;26.13;21.33;;;-3.20;99.90;;;;;;5013453;28;20057;-88
2021/01/16 08:01:08;;;;;;;15.13;10.27;;;-3.20;99.90;;;;;;4996857;28;20073;-87
2021/01/16 08:04:21;;;;;;;16.60;10.25;;;-3.10;99.90;;;;;;4995918;28;20073;-87
2021/01/16 08:07:06;;;;;;;16.05;9.32;;;-2.90;99.90;;;;;;4918105;29;20567;-88
2021/01/16 08:09:51;;;;;;;16.55;10.27;;;-2.90;99.90;;;;;;4933765;29;20130;-87
2021/01/16 08:12:19;;;;;;;13.75;9.50;;;-2.80;99.90;;;;;;4979343;28;20073;-87
2021/01/16 08:14:46;;;;;;;13.27;9.32;;;-2.80;99.90;;;;;;4995670;28;20076;-87
2021/01/16 08:17:15;;;;;;;15.00;9.55;;;-2.90;99.90;;;;;;4995940;28;20124;-86
2021/01/16 08:20:07;;;;;;;13.73;9.82;;;-2.80;99.90;;;;;;4996081;28;20124;-87
2021/01/16 08:22:38;;;;;;;13.95;9.27;;;-2.70;99.90;;;;;;4995425;28;20062;-88
2021/01/16 08:25:09;;;;;;;18.67;11.45;;;-2.50;99.90;;;;;;4995913;28;20050;-87
2021/01/16 08:27:46;;;;;;;22.77;12.93;;;-2.60;99.90;;;;;;4995670;28;20132;-87
2021/01/16 08:30:15;;;;;;;18.50;11.57;;;-2.50;99.90;;;;;;5013295;28;20072;-88
2021/01/16 08:32:59;;;;;;;15.02;10.10;;;-2.40;99.90;;;;;;4995443;28;20137;-87
2021/01/16 08:35:28;;;;;;;19.52;11.20;;;-2.30;99.90;;;;;;5012995;28;20549;-87
2021/01/16 08:38:17;;;;;;;15.18;10.00;;;-2.40;99.90;;;;;;5013013;28;20050;-87
2021/01/16 08:41:08;;;;;;;15.27;10.77;;;-2.40;99.90;;;;;;4997821;28;20050;-87
2021/01/16 08:43:40;;;;;;;14.02;8.98;;;-2.40;99.90;;;;;;4999247;28;20052;-87
2021/01/16 08:46:10;;;;;;;16.53;10.17;;;-2.30;99.90;;;;;;4999448;28;20058;-87
2021/01/16 08:48:38;;;;;;;15.18;9.65;;;-2.30;99.90;;;;;;4999065;28;20117;-87
2021/01/16 08:51:36;;;;;;;13.18;9.38;;;-2.20;99.90;;;;;;4999246;28;20461;-87
2021/01/16 08:54:07;;;;;;;16.08;9.93;;;-2.20;99.90;;;;;;4977817;28;20081;-87
2021/01/16 08:56:33;;;;;;;13.20;9.02;;;-2.20;99.90;;;;;;5016225;28;20476;-87
2021/01/16 08:59:18;;;;;;;13.25;10.00;;;-2.20;99.90;;;;;;4999047;28;20050;-88
2021/01/16 09:01:51;;;;;;;22.52;12.55;;;-2.20;99.90;;;;;;4998870;28;20560;-87
2021/01/16 09:04:19;;;;;;;16.35;10.30;;;-2.10;99.90;;;;;;4999412;28;20046;-88
2021/01/16 09:06:46;;;;;;;23.02;13.65;;;-2.10;99.90;;;;;;4999087;28;20123;-87
2021/01/16 09:09:15;;;;;;;24.13;13.10;;;-2.10;99.90;;;;;;4998959;28;20085;-88
2021/01/16 09:12:08;;;;;;;13.60;8.20;;;-2.10;99.90;;;;;;4998995;28;20140;-88
2021/01/16 09:14:36;;;;;;;12.48;9.13;;;-2.00;99.90;;;;;;4998826;28;20060;-88
2021/01/16 09:17:20;;;;;;;11.38;8.18;;;-2.00;99.90;;;;;;4998796;28;20132;-88
2021/01/16 09:19:57;;;;;;;13.88;8.50;;;-1.90;99.90;;;;;;5016079;28;20476;-88
2021/01/16 09:22:30;;;;;;;14.30;9.02;;;-1.90;99.90;;;;;;4998561;28;20088;-87
2021/01/16 09:25:22;;;;;;;14.30;9.35;;;-1.80;99.90;;;;;;4998809;28;20054;-87
2021/01/16 09:27:49;;;;;;;10.93;8.27;;;-1.70;99.90;;;;;;4998423;28;20461;-88
2021/01/16 09:30:24;;;;;;;16.70;9.80;;;-1.60;99.90;;;;;;4998879;28;20108;-87
2021/01/16 09:32:51;;;;;;;28.00;13.50;;;-1.50;99.90;;;;;;4998530;28;20096;-87
2021/01/16 09:35:36;;;;;;;23.70;12.95;;;-1.40;99.90;;;;;;5015525;28;20057;-87
2021/01/16 09:38:03;;;;;;;16.55;10.05;;;-1.40;99.90;;;;;;4998448;28;20103;-87
2021/01/16 09:40:36;;;;;;;26.30;14.30;;;-1.30;99.90;;;;;;5015642;28;20046;-88
2021/01/16 09:43:18;;;;;;;21.20;11.82;;;-1.10;99.90;;;;;;5015512;28;20133;-88
2021/01/16 09:45:52;;;;;;;13.45;9.50;;;-0.90;99.90;;;;;;4998291;28;20564;-87
2021/01/16 09:48:39;;;;;;;15.73;9.95;;;-0.90;99.90;;;;;;4998240;28;20127;-87
2021/01/16 09:51:06;;;;;;;18.10;8.82;;;-0.80;99.90;;;;;;5014418;28;20544;-88
2021/01/16 09:53:32;;;;;;;10.52;7.60;;;-0.70;99.90;;;;;;4997962;28;20054;-87
2021/01/16 09:55:59;;;;;;;12.30;8.07;;;-0.70;99.90;;;;;;5015130;28;20524;-88
2021/01/16 09:58:41;;;;;;;8.93;7.30;;;-0.60;99.90;;;;;;4997929;28;20057;-88
2021/01/16 10:01:14;;;;;;;15.02;9.30;;;-0.60;99.90;;;;;;4998022;28;20180;-88
2021/01/16 10:03:42;;;;;;;13.98;8.57;;;-0.50;99.90;;;;;;4997984;28;20147;-88
2021/01/16 10:06:09;;;;;;;12.23;7.68;;;-0.40;99.90;;;;;;4997965;28;20053;-88
2021/01/16 10:08:39;;;;;;;10.43;6.93;;;-0.20;99.90;;;;;;4997442;28;20142;-86
2021/01/16 10:11:05;;;;;;;9.70;6.85;;;-0.10;99.90;;;;;;4997894;28;20497;-87
2021/01/16 10:13:37;;;;;;;8.02;6.38;;;-0.20;99.90;;;;;;4997521;28;20073;-88
2021/01/16 10:16:11;;;;;;;8.68;7.15;;;-0.10;99.90;;;;;;4997997;28;20490;-88
2021/01/16 10:18:40;;;;;;;9.48;6.63;;;0.10;99.90;;;;;;5011899;28;20402;-88
2021/01/16 10:21:10;;;;;;;5.72;5.10;;;0.20;99.90;;;;;;4997470;28;20054;-88
2021/01/16 10:23:41;;;;;;;6.53;5.22;;;0.30;99.90;;;;;;4997877;28;20463;-89
2021/01/16 10:26:16;;;;;;;5.88;5.00;;;0.30;99.90;;;;;;4997895;28;20060;-87
2021/01/16 10:28:48;;;;;;;6.97;4.35;;;0.20;99.90;;;;;;4997129;28;20079;-88
2021/01/16 10:31:21;;;;;;;10.05;6.25;;;0.10;99.90;;;;;;5014764;28;20530;-88
2021/01/16 10:33:48;;;;;;;6.22;4.40;;;0.30;99.90;;;;;;5014791;28;20494;-88
2021/01/16 10:36:17;;;;;;;6.70;4.55;;;0.20;99.90;;;;;;5013299;28;20450;-88
2021/01/16 10:38:48;;;;;;;6.53;4.95;;;0.30;99.90;;;;;;4997253;28;20233;-88
2021/01/16 10:41:18;;;;;;;5.65;3.67;;;0.30;99.90;;;;;;4997178;28;20085;-89
2021/01/16 10:43:44;;;;;;;3.88;3.58;;;0.20;99.90;;;;;;4996997;28;20137;-89
2021/01/16 10:46:22;;;;;;;5.63;3.67;;;0.20;99.90;;;;;;4997369;28;20060;-89
2021/01/16 10:48:49;;;;;;;4.38;3.97;;;0.00;99.90;;;;;;5014619;28;20129;-88
2021/01/16 10:51:22;;;;;;;4.97;4.03;;;0.00;99.90;;;;;;5014688;28;20050;-89
2021/01/16 10:53:56;;;;;;;4.20;3.85;;;0.00;99.90;;;;;;5014863;28;20115;-88
2021/01/16 10:56:25;;;;;;;4.32;3.92;;;0.10;99.90;;;;;;5014260;28;20050;-89
2021/01/16 10:59:08;;;;;;;3.78;3.47;;;0.10;99.90;;;;;;5014086;28;20053;-89
2021/01/16 11:01:44;;;;;;;4.05;3.63;;;0.10;99.90;;;;;;4996890;28;20129;-88
2021/01/16 11:04:18;;;;;;;4.85;4.00;;;0.10;99.90;;;;;;4997216;28;20125;-88
2021/01/16 11:06:48;;;;;;;5.35;4.25;;;0.00;99.90;;;;;;4996793;28;20061;-89
2021/01/16 11:09:33;;;;;;;4.53;4.07;;;0.10;99.90;;;;;;4996903;28;20136;-88
2021/01/16 11:12:04;;;;;;;3.03;2.80;;;0.10;99.90;;;;;;4996974;28;20088;-89
2021/01/16 11:14:37;;;;;;;3.83;3.13;;;0.00;99.90;;;;;;4996774;28;20096;-89
2021/01/16 11:17:04;;;;;;;12.27;6.55;;;0.00;99.90;;;;;;5013931;28;20486;-89
2021/01/16 11:19:33;;;;;;;7.28;4.55;;;0.10;99.90;;;;;;4996175;28;20144;-89
2021/01/16 11:22:09;;;;;;;3.72;3.38;;;0.10;99.90;;;;;;4993069;28;20588;-89
2021/01/16 11:25:07;;;;;;;3.13;2.83;;;-0.20;99.90;;;;;;4993055;28;20042;-88
2021/01/16 11:27:35;;;;;;;4.10;2.85;;;-0.40;99.90;;;;;;4994150;28;20133;-89
2021/01/16 11:30:14;;;;;;;3.00;2.80;;;-0.50;99.90;;;;;;4993669;28;20093;-89
2021/01/16 11:32:40;;;;;;;4.20;3.28;;;-0.70;99.90;;;;;;4993103;28;20137;-89
2021/01/16 11:35:11;;;;;;;4.22;3.70;;;-0.70;99.90;;;;;;4994480;28;20490;-89
2021/01/16 11:37:47;;;;;;;3.63;3.33;;;-0.70;99.90;;;;;;4993238;28;20553;-89
2021/01/16 11:40:22;;;;;;;2.78;2.58;;;-0.60;99.90;;;;;;4993061;28;20137;-88
2021/01/16 11:42:58;;;;;;;;;;;-0.70;99.90;;;;;;4993612;28;20112;-89
2021/01/16 11:45:25;;;;;;;3.08;2.70;;;-0.70;99.90;;;;;;4993284;28;20356;-89
2021/01/16 11:48:00;;;;;;;3.50;3.13;;;-0.80;99.90;;;;;;4993276;28;20081;-89
2021/01/16 11:50:28;;;;;;;3.30;2.75;;;-0.80;99.90;;;;;;4993829;28;20556;-89
2021/01/16 11:52:55;;;;;;;3.25;2.95;;;-0.80;99.90;;;;;;4992759;28;20321;-89
2021/01/16 11:55:22;;;;;;;4.35;3.28;;;-0.80;99.90;;;;;;4992976;28;20505;-89
2021/01/16 11:57:48;;;;;;;3.10;2.90;;;-0.80;99.90;;;;;;4992884;28;20132;-89
2021/01/16 12:00:17;;;;;;;2.78;2.58;;;-0.80;99.90;;;;;;4993085;28;20054;-89
2021/01/16 12:02:48;;;;;;;3.17;2.88;;;-0.80;99.90;;;;;;4993953;28;20134;-89
2021/01/16 12:05:17;;;;;;;3.00;2.70;;;-0.90;99.90;;;;;;4993830;28;20097;-88
2021/01/16 12:07:47;;;;;;;6.50;3.97;;;-1.00;99.90;;;;;;4992957;28;20074;-88
2021/01/16 12:10:20;;;;;;;5.97;4.13;;;-0.90;99.90;;;;;;4994188;28;20092;-89
2021/01/16 12:12:53;;;;;;;4.40;3.33;;;-0.80;99.90;;;;;;4993838;28;20513;-89
2021/01/16 12:15:27;;;;;;;2.88;2.67;;;-0.80;99.90;;;;;;4996352;28;20074;-89
2021/01/16 12:17:55;;;;;;;2.92;2.65;;;-0.80;99.90;;;;;;4996715;28;20050;-89
2021/01/16 12:20:26;;;;;;;7.47;3.17;;;-0.80;99.90;;;;;;4997674;28;20090;-88
2021/01/16 12:22:57;;;;;;;3.95;3.22;;;-0.70;99.90;;;;;;5012365;28;20089;-89
2021/01/16 12:25:34;;;;;;;3.15;2.95;;;-0.70;99.90;;;;;;5000313;28;20461;-89
2021/01/16 12:28:04;;;;;;;5.28;3.95;;;-0.60;99.90;;;;;;5000030;28;20050;-89
2021/01/16 12:30:36;;;;;;;5.07;4.30;;;-0.60;99.90;;;;;;5000002;28;20045;-89
2021/01/16 12:33:03;;;;;;;3.97;3.65;;;-0.50;99.90;;;;;;5000031;28;20136;-89
2021/01/16 12:35:30;;;;;;;3.50;3.20;;;-0.50;99.90;;;;;;5017289;28;20122;-89
2021/01/16 12:37:56;;;;;;;3.40;3.10;;;-0.50;99.90;;;;;;5017316;28;20136;-89
2021/01/16 12:40:25;;;;;;;3.50;3.17;;;-0.50;99.90;;;;;;5017060;28;20224;-89
2021/01/16 12:42:53;;;;;;;3.45;3.13;;;-0.50;99.90;;;;;;5016809;28;20081;-89
2021/01/16 12:45:22;;;;;;;4.22;3.40;;;-0.50;99.90;;;;;;5016914;28;20123;-88
2021/01/16 12:47:50;;;;;;;3.20;2.83;;;-0.40;99.90;;;;;;4999822;28;20133;-89
2021/01/16 12:50:17;;;;;;;3.25;2.95;;;-0.50;99.90;;;;;;4999617;28;20045;-89
2021/01/16 12:53:02;;;;;;;3.15;2.88;;;-0.50;99.90;;;;;;5016644;28;20054;-89
2021/01/16 12:55:29;;;;;;;3.78;3.30;;;-0.60;99.90;;;;;;4999385;28;20088;-89
2021/01/16 12:57:59;;;;;;;4.43;3.30;;;-0.50;99.90;;;;;;4999486;28;20125;-89